Time;durP1;ratioP1;P1;durP2;ratioP2;P2;SDS_P1;SDS_P2;PMS_P1;PMS_P2;Temp;Humidity;BMP_temperature;BMP_pressure;BME280_temperature;BME280_humidity;BME280_pressure;Samples;Min_cycle;Max_cycle;Signal;HPM_P1;HPM_P2
2022/03/08 00:00:05;;;;;;;4.82;3.13;;;2.00;99.90;;;;;;4874631;29;20054;-90
2022/03/08 00:02:31;;;;;;;5.40;3.05;;;2.00;99.90;;;;;;4845917;29;20400;-91
2022/03/08 00:04:56;;;;;;;5.90;3.15;;;1.80;99.90;;;;;;4844773;29;20123;-91
2022/03/08 00:07:22;;;;;;;4.22;2.65;;;1.70;99.90;;;;;;4852813;29;20042;-91
2022/03/08 00:09:48;;;;;;;4.15;2.78;;;2.80;99.90;;;;;;4847723;29;20049;-91
2022/03/08 00:12:13;;;;;;;7.32;3.13;;;2.60;99.90;;;;;;4849408;29;20105;-90
2022/03/08 00:14:39;;;;;;;3.28;2.50;;;1.40;99.90;;;;;;4848207;29;20049;-91
2022/03/08 00:17:05;;;;;;;4.72;3.10;;;2.00;99.90;;;;;;4847267;29;20076;-90
2022/03/08 00:19:30;;;;;;;2.83;2.50;;;2.40;99.90;;;;;;4867680;29;20554;-91
2022/03/08 00:21:56;;;;;;;3.88;2.67;;;2.50;99.90;;;;;;4838451;29;20073;-90
2022/03/08 00:24:22;;;;;;;4.13;3.45;;;2.10;99.90;;;;;;4865247;29;20072;-90
2022/03/08 00:26:48;;;;;;;4.13;2.67;;;1.80;99.90;;;;;;4863569;29;20049;-86
2022/03/08 00:29:13;;;;;;;5.57;3.08;;;1.20;99.90;;;;;;4867974;29;20048;-90
2022/03/08 00:31:39;;;;;;;10.63;3.40;;;1.10;99.90;;;;;;4849634;29;20456;-89
2022/03/08 00:34:05;;;;;;;5.57;3.45;;;1.10;99.90;;;;;;4854377;29;20053;-90
2022/03/08 00:36:32;;;;;;;7.07;3.10;;;2.10;99.90;;;;;;4853902;29;20400;-90
2022/03/08 00:38:57;;;;;;;3.72;2.72;;;1.50;99.90;;;;;;4878474;29;20091;-91
2022/03/08 00:41:24;;;;;;;5.50;3.20;;;1.90;99.90;;;;;;4850570;29;20084;-90
2022/03/08 00:43:51;;;;;;;4.38;2.67;;;1.10;99.90;;;;;;4858261;29;20053;-87
2022/03/08 00:46:17;;;;;;;5.38;3.40;;;1.50;99.90;;;;;;4855180;29;20128;-90
2022/03/08 00:48:43;;;;;;;4.10;2.47;;;2.30;99.90;;;;;;4874037;29;20045;-91
2022/03/08 00:51:10;;;;;;;4.68;2.92;;;2.30;99.90;;;;;;4876461;29;20511;-89
2022/03/08 00:53:36;;;;;;;7.32;3.08;;;1.20;99.90;;;;;;4861448;29;20056;-90
2022/03/08 00:56:02;;;;;;;6.07;3.42;;;2.30;99.90;;;;;;4872110;29;20052;-90
2022/03/08 00:58:27;;;;;;;6.85;3.38;;;1.10;99.90;;;;;;4867977;29;20176;-91
2022/03/08 01:00:53;;;;;;;6.50;3.30;;;1.10;99.90;;;;;;4870633;29;20045;-90
2022/03/08 01:03:19;;;;;;;4.25;3.15;;;1.00;99.90;;;;;;4869500;29;20041;-90
2022/03/08 01:05:44;;;;;;;8.88;3.30;;;1.10;99.90;;;;;;4848260;29;20085;-91
2022/03/08 01:08:10;;;;;;;11.57;3.28;;;1.90;99.90;;;;;;4847497;29;20486;-89
2022/03/08 01:10:36;;;;;;;7.47;2.95;;;1.00;99.90;;;;;;4868085;29;20040;-90
2022/03/08 01:13:03;;;;;;;7.85;3.47;;;1.00;99.90;;;;;;4861562;29;20540;-88
2022/03/08 01:15:28;;;;;;;5.50;3.20;;;1.30;99.90;;;;;;4848205;29;20112;-90
2022/03/08 01:17:56;;;;;;;4.65;3.72;;;1.00;99.90;;;;;;4864440;29;20044;-90
2022/03/08 01:20:22;;;;;;;4.45;2.60;;;1.00;99.90;;;;;;4864186;29;20132;-91
2022/03/08 01:22:49;;;;;;;4.80;2.63;;;2.20;99.90;;;;;;4881694;29;20135;-90
2022/03/08 01:25:16;;;;;;;5.85;3.00;;;0.90;99.90;;;;;;4864661;29;20055;-91
2022/03/08 01:27:42;;;;;;;;;;;0.90;99.90;;;;;;4863381;29;20053;-91
2022/03/08 01:30:10;;;;;;;3.22;2.60;;;0.90;99.90;;;;;;4850149;29;19934;-91
2022/03/08 01:32:36;;;;;;;5.43;2.60;;;0.80;99.90;;;;;;4873687;29;20049;-90
2022/03/08 01:35:03;;;;;;;5.65;3.58;;;1.60;99.90;;;;;;4884721;29;20052;-91
2022/03/08 01:37:28;;;;;;;6.97;3.13;;;0.70;99.90;;;;;;4847044;29;20045;-91
2022/03/08 01:39:54;;;;;;;4.97;2.63;;;1.00;99.90;;;;;;4877187;29;20056;-91
2022/03/08 01:42:23;;;;;;;7.28;3.28;;;0.60;99.90;;;;;;4831462;29;20109;-91
2022/03/08 01:44:49;;;;;;;3.92;2.97;;;0.50;99.90;;;;;;4838291;29;20057;-90
2022/03/08 01:47:22;;;;;;;4.87;2.50;;;0.90;99.90;;;;;;4863877;29;20049;-90
2022/03/08 01:49:50;;;;;;;3.45;2.78;;;0.40;99.90;;;;;;4859969;29;20301;-90
2022/03/08 01:52:18;;;;;;;4.72;2.30;;;0.40;99.90;;;;;;4848843;29;20053;-90
2022/03/08 01:54:44;;;;;;;4.13;3.55;;;0.40;99.90;;;;;;4893679;29;20047;-89
2022/03/08 01:57:12;;;;;;;5.38;2.67;;;0.40;99.90;;;;;;4866840;29;20404;-90
2022/03/08 01:59:37;;;;;;;3.92;2.72;;;1.70;99.90;;;;;;4878988;29;20055;-90
2022/03/08 02:02:04;;;;;;;9.68;4.15;;;0.50;99.90;;;;;;4861668;29;20056;-91
2022/03/08 02:04:30;;;;;;;4.63;2.97;;;0.50;99.90;;;;;;4892304;29;20101;-90
2022/03/08 02:06:55;;;;;;;7.82;2.90;;;0.40;99.90;;;;;;4859595;29;20049;-91
2022/03/08 02:09:21;;;;;;;5.93;3.13;;;1.60;99.90;;;;;;4863443;29;20512;-90
2022/03/08 02:11:48;;;;;;;5.53;3.95;;;0.40;99.90;;;;;;4857468;29;20068;-91
2022/03/08 02:14:18;;;;;;;5.25;3.38;;;1.60;99.90;;;;;;4871111;29;20110;-89
2022/03/08 02:16:44;;;;;;;6.32;3.40;;;1.80;99.90;;;;;;4876725;29;20056;-91
2022/03/08 02:19:11;;;;;;;4.22;3.25;;;0.40;99.90;;;;;;4856395;29;20462;-89
2022/03/08 02:21:37;;;;;;;;;;;0.40;99.90;;;;;;4867377;29;20045;-91
2022/03/08 02:24:03;;;;;;;2.30;2.10;;;0.40;99.90;;;;;;4853024;29;20295;-90
2022/03/08 02:26:31;;;;;;;5.43;2.75;;;0.30;99.90;;;;;;4888757;29;20128;-90
2022/03/08 02:29:00;;;;;;;9.07;3.58;;;1.30;99.90;;;;;;4843568;29;20080;-91
2022/03/08 02:31:26;;;;;;;4.65;3.45;;;0.40;99.90;;;;;;4869017;29;20124;-90
2022/03/08 02:33:52;;;;;;;4.47;3.38;;;0.60;99.90;;;;;;4882561;29;20056;-91
2022/03/08 02:36:18;;;;;;;3.13;2.80;;;0.60;99.90;;;;;;4863824;29;20053;-91
2022/03/08 02:38:44;;;;;;;6.90;3.00;;;1.10;99.90;;;;;;4847802;29;20051;-90
2022/03/08 02:41:10;;;;;;;6.43;4.75;;;1.00;99.90;;;;;;4854395;29;20061;-90
2022/03/08 02:43:35;;;;;;;5.72;3.10;;;0.30;99.90;;;;;;4851272;29;20485;-90
2022/03/08 02:46:01;;;;;;;6.03;3.30;;;0.50;99.90;;;;;;4893736;29;20124;-90
2022/03/08 02:48:28;;;;;;;6.03;4.03;;;1.00;99.90;;;;;;4857457;29;20049;-91
2022/03/08 02:50:54;;;;;;;;;;;0.50;99.90;;;;;;4880829;29;20492;-91
2022/03/08 02:53:20;;;;;;;2.70;2.28;;;0.60;99.90;;;;;;4877482;29;19935;-91
2022/03/08 02:55:46;;;;;;;9.77;4.45;;;0.90;99.90;;;;;;4868654;29;20071;-91
2022/03/08 02:58:13;;;;;;;4.17;3.40;;;0.20;99.90;;;;;;4875716;29;20109;-91
2022/03/08 03:00:39;;;;;;;5.88;3.58;;;1.40;99.90;;;;;;4853918;29;20041;-91
2022/03/08 03:03:06;;;;;;;7.63;3.75;;;0.20;99.90;;;;;;4868927;29;20113;-91
2022/03/08 03:05:32;;;;;;;8.25;3.47;;;0.20;99.90;;;;;;4891272;29;20515;-92
2022/03/08 03:07:58;;;;;;;7.65;4.25;;;1.50;99.90;;;;;;4901609;29;20492;-91
2022/03/08 03:10:24;;;;;;;8.07;2.67;;;1.20;99.90;;;;;;4856716;29;20037;-91
2022/03/08 03:12:54;;;;;;;5.57;2.70;;;1.40;99.90;;;;;;4862724;29;20305;-91
2022/03/08 03:15:20;;;;;;;4.60;2.70;;;0.10;99.90;;;;;;4872646;29;20131;-92
2022/03/08 03:17:46;;;;;;;5.13;3.15;;;0.10;99.90;;;;;;4882081;29;20100;-91
2022/03/08 03:20:16;;;;;;;6.27;3.53;;;1.10;99.90;;;;;;4852541;29;20119;-91
2022/03/08 03:22:42;;;;;;;4.25;2.97;;;0.00;99.90;;;;;;4892821;29;20041;-91
2022/03/08 03:25:09;;;;;;;6.30;3.80;;;0.10;99.90;;;;;;4865226;29;20048;-87
2022/03/08 03:27:36;;;;;;;6.10;3.92;;;-0.10;99.90;;;;;;4868444;29;20120;-91
2022/03/08 03:30:04;;;;;;;5.75;3.42;;;-0.10;99.90;;;;;;4881271;29;20049;-91
2022/03/08 03:32:30;;;;;;;6.03;3.35;;;-0.10;99.90;;;;;;4865832;29;20556;-91
2022/03/08 03:34:56;;;;;;;5.25;2.78;;;-0.10;99.90;;;;;;4879827;29;20097;-92
2022/03/08 03:37:23;;;;;;;5.35;2.67;;;0.40;99.90;;;;;;4848675;29;20136;-91
2022/03/08 03:39:49;;;;;;;7.95;4.53;;;-0.10;99.90;;;;;;4864428;29;20097;-91
2022/03/08 03:42:15;;;;;;;8.63;4.83;;;0.90;99.90;;;;;;4866053;29;20359;-90
2022/03/08 03:44:41;;;;;;;3.67;3.33;;;-0.10;99.90;;;;;;4868237;29;20053;-91
2022/03/08 03:47:07;;;;;;;3.85;2.33;;;0.60;99.90;;;;;;4834209;29;20153;-91
2022/03/08 03:49:33;;;;;;;7.67;4.73;;;-0.20;99.90;;;;;;4868580;29;20120;-91
2022/03/08 03:51:59;;;;;;;4.07;2.83;;;0.10;99.90;;;;;;4850010;29;20369;-91
2022/03/08 03:54:24;;;;;;;4.18;3.55;;;-0.20;99.90;;;;;;4864287;29;20136;-90
2022/03/08 03:56:50;;;;;;;10.57;3.42;;;-0.20;99.90;;;;;;4880805;29;20116;-91
2022/03/08 03:59:16;;;;;;;7.03;3.70;;;-0.20;99.90;;;;;;4855312;29;20048;-91
2022/03/08 04:01:42;;;;;;;3.97;3.08;;;0.40;99.90;;;;;;4861762;29;20132;-90
2022/03/08 04:04:07;;;;;;;7.88;3.25;;;1.10;99.90;;;;;;4865927;29;20076;-91
2022/03/08 04:06:34;;;;;;;12.95;5.03;;;0.70;99.90;;;;;;4866759;29;20648;-91
2022/03/08 04:09:01;;;;;;;5.18;4.53;;;-0.20;99.90;;;;;;4866404;29;20048;-91
2022/03/08 04:11:27;;;;;;;3.72;2.35;;;0.00;99.90;;;;;;4853498;29;20052;-90
2022/03/08 04:13:52;;;;;;;12.48;3.58;;;0.20;99.90;;;;;;4876074;29;20123;-91
2022/03/08 04:16:18;;;;;;;5.72;3.75;;;0.60;99.90;;;;;;4848527;29;20052;-92
2022/03/08 04:18:44;;;;;;;7.60;3.53;;;-0.20;99.90;;;;;;4840637;29;20097;-90
2022/03/08 04:21:09;;;;;;;11.30;4.53;;;1.00;99.90;;;;;;4853710;29;20055;-91
2022/03/08 04:23:35;;;;;;;5.03;4.53;;;-0.20;99.90;;;;;;4862995;29;20037;-91
2022/03/08 04:26:01;;;;;;;6.38;3.25;;;0.50;99.90;;;;;;4864825;29;20392;-90
2022/03/08 04:28:27;;;;;;;6.40;4.50;;;-0.20;99.90;;;;;;4863107;29;20057;-92
2022/03/08 04:30:53;;;;;;;6.03;3.83;;;-0.30;99.90;;;;;;4869062;29;20063;-91
2022/03/08 04:33:18;;;;;;;8.35;3.97;;;1.00;99.90;;;;;;4847970;29;20120;-91
2022/03/08 04:35:44;;;;;;;14.02;3.97;;;0.50;99.90;;;;;;4879271;29;20492;-91
2022/03/08 04:38:10;;;;;;;5.82;2.88;;;0.80;99.90;;;;;;4860636;29;20050;-91
2022/03/08 04:40:36;;;;;;;5.63;3.25;;;0.90;99.90;;;;;;4860801;29;20181;-91
2022/03/08 04:43:02;;;;;;;9.82;4.03;;;0.90;99.90;;;;;;4866607;29;20131;-91
2022/03/08 04:45:28;;;;;;;10.05;5.53;;;0.50;99.90;;;;;;4859920;29;20048;-91
2022/03/08 04:47:53;;;;;;;20.02;4.80;;;-0.40;99.90;;;;;;4866455;29;20053;-91
2022/03/08 04:50:19;;;;;;;4.68;3.70;;;-0.40;99.90;;;;;;4832745;29;20133;-86
2022/03/08 04:52:47;;;;;;;8.57;4.85;;;1.10;99.90;;;;;;4851291;29;20480;-91
2022/03/08 04:55:14;;;;;;;5.55;3.25;;;-0.40;99.90;;;;;;4878893;29;20045;-91
2022/03/08 04:57:40;;;;;;;7.57;3.63;;;-0.40;99.90;;;;;;4879528;29;20341;-91
2022/03/08 05:00:08;;;;;;;8.63;4.90;;;0.40;99.90;;;;;;4851583;29;20111;-91
2022/03/08 05:02:34;;;;;;;8.68;4.15;;;-0.40;99.90;;;;;;4844816;29;20052;-92
2022/03/08 05:05:00;;;;;;;4.90;3.38;;;0.70;99.90;;;;;;4837963;29;20197;-93
2022/03/08 05:07:25;;;;;;;3.83;2.88;;;-0.50;99.90;;;;;;4864303;29;20045;-92
2022/03/08 05:09:51;;;;;;;6.55;3.83;;;0.60;99.90;;;;;;4827162;29;20412;-91
2022/03/08 05:12:17;;;;;;;5.68;3.63;;;-0.50;99.90;;;;;;4866696;29;20050;-92
2022/03/08 05:14:43;;;;;;;4.95;3.85;;;-0.50;99.90;;;;;;4852991;29;20056;-92
2022/03/08 05:17:08;;;;;;;10.48;4.65;;;-0.50;99.90;;;;;;4830290;29;20057;-92
2022/03/08 05:19:34;;;;;;;5.88;4.65;;;-0.60;99.90;;;;;;4862459;29;20104;-92
2022/03/08 05:22:00;;;;;;;8.20;4.18;;;-0.60;99.90;;;;;;4845507;29;20045;-93
2022/03/08 05:24:26;;;;;;;5.53;4.18;;;-0.40;99.90;;;;;;4867006;29;20056;-93
2022/03/08 05:26:52;;;;;;;7.45;3.75;;;-0.60;99.90;;;;;;4861842;29;20508;-90
2022/03/08 05:29:17;;;;;;;9.50;3.40;;;0.60;99.90;;;;;;4845356;29;20485;-92
2022/03/08 05:31:43;;;;;;;6.00;3.28;;;0.60;99.90;;;;;;4843915;29;20049;-91
2022/03/08 05:34:09;;;;;;;7.47;3.90;;;-0.60;99.90;;;;;;4854891;29;20052;-93
2022/03/08 05:36:35;;;;;;;4.20;3.72;;;-0.70;99.90;;;;;;4847220;29;20045;-92
2022/03/08 05:39:01;;;;;;;8.65;3.58;;;-0.50;99.90;;;;;;4854811;29;20085;-91
2022/03/08 05:41:27;;;;;;;9.18;4.00;;;0.20;99.90;;;;;;4876789;29;20527;-88
2022/03/08 05:43:52;;;;;;;8.70;3.80;;;0.00;99.90;;;;;;4862757;29;20124;-92
2022/03/08 05:46:18;;;;;;;7.95;4.32;;;0.60;99.90;;;;;;4869286;29;20136;-91
2022/03/08 05:48:44;;;;;;;3.55;3.25;;;0.00;99.90;;;;;;4861295;29;20409;-91
2022/03/08 05:51:10;;;;;;;7.60;3.97;;;-0.70;99.90;;;;;;4862683;29;20053;-91
2022/03/08 05:53:36;;;;;;;3.30;3.00;;;-0.70;99.90;;;;;;4892021;29;20570;-92
2022/03/08 05:56:01;;;;;;;14.07;4.32;;;-0.10;99.90;;;;;;4862970;29;20060;-91
2022/03/08 05:58:27;;;;;;;13.30;4.10;;;-0.70;99.90;;;;;;4872611;29;20073;-91
2022/03/08 06:00:53;;;;;;;9.07;4.63;;;-0.70;99.90;;;;;;4876978;29;20041;-92
2022/03/08 06:03:18;;;;;;;6.97;3.42;;;-0.10;99.90;;;;;;4877286;29;20049;-91
2022/03/08 06:05:44;;;;;;;5.10;3.15;;;0.40;99.90;;;;;;4888023;29;20053;-92
2022/03/08 06:08:10;;;;;;;5.53;3.35;;;-0.60;99.90;;;;;;4848757;29;20056;-92
2022/03/08 06:10:36;;;;;;;13.25;4.03;;;0.30;99.90;;;;;;4870610;29;20131;-92
2022/03/08 06:13:02;;;;;;;10.00;4.05;;;0.00;99.90;;;;;;4861388;29;20064;-91
2022/03/08 06:15:28;;;;;;;5.47;3.28;;;-0.80;99.90;;;;;;4864347;29;20045;-92
2022/03/08 06:17:54;;;;;;;7.68;5.38;;;0.60;99.90;;;;;;4857576;29;20112;-92
2022/03/08 06:20:19;;;;;;;6.65;4.30;;;-0.40;99.90;;;;;;4834003;29;20048;-92
2022/03/08 06:22:45;;;;;;;6.38;4.20;;;0.50;99.90;;;;;;4853221;29;20064;-92
2022/03/08 06:25:11;;;;;;;6.82;2.88;;;-0.70;99.90;;;;;;4878320;29;20047;-90
2022/03/08 06:27:38;;;;;;;6.87;4.20;;;-0.70;99.90;;;;;;4869719;29;20193;-93
2022/03/08 06:30:05;;;;;;;7.47;5.28;;;0.20;99.90;;;;;;4855101;29;20123;-92
2022/03/08 06:32:31;;;;;;;6.25;4.63;;;-0.70;99.90;;;;;;4870969;29;20063;-91
2022/03/08 06:34:56;;;;;;;4.63;3.75;;;0.10;99.90;;;;;;4889984;29;20052;-92
2022/03/08 06:37:22;;;;;;;7.80;4.22;;;-0.30;99.90;;;;;;4857587;29;20045;-92
2022/03/08 06:39:51;;;;;;;5.50;2.65;;;-0.60;99.90;;;;;;4846975;29;20057;-92
2022/03/08 06:42:18;;;;;;;4.90;4.38;;;-0.50;99.90;;;;;;4873925;29;20050;-92
2022/03/08 06:44:44;;;;;;;8.85;5.10;;;-0.50;99.90;;;;;;4872172;29;20505;-92
2022/03/08 06:47:10;;;;;;;7.22;3.40;;;0.40;99.90;;;;;;4862484;29;20093;-91
2022/03/08 06:49:41;;;;;;;4.95;3.70;;;0.00;99.90;;;;;;4876297;29;20063;-91
2022/03/08 06:52:07;;;;;;;7.25;3.88;;;-0.20;99.90;;;;;;4857174;29;20135;-91
2022/03/08 06:54:37;;;;;;;8.43;3.85;;;-0.30;99.90;;;;;;4851067;29;20037;-92
2022/03/08 06:57:08;;;;;;;6.00;4.32;;;-0.30;99.90;;;;;;4852956;29;20037;-92
2022/03/08 06:59:49;;;;;;;;;;;;;;;;;;;;;
2022/03/08 07:02:23;;;;;;;9.13;3.50;;;1.00;99.90;;;;;;4872896;29;20049;-93
2022/03/08 07:05:13;;;;;;;9.30;4.45;;;-0.10;99.90;;;;;;4860472;29;20148;-91
2022/03/08 07:07:43;;;;;;;8.10;4.20;;;0.00;99.90;;;;;;4870364;29;20112;-92
2022/03/08 07:10:19;;;;;;;14.43;5.88;;;1.40;99.90;;;;;;4869344;29;20060;-92
2022/03/08 07:12:47;;;;;;;10.35;5.90;;;1.30;99.90;;;;;;4877976;29;20079;-92
2022/03/08 07:15:18;;;;;;;15.35;7.93;;;3.20;99.90;;;;;;4880941;29;20067;-92
2022/03/08 07:17:48;;;;;;;14.90;6.90;;;2.80;99.90;;;;;;4861710;29;20074;-87
2022/03/08 07:20:15;;;;;;;11.88;6.45;;;3.40;99.90;;;;;;4865600;29;20411;-94
2022/03/08 07:22:41;;;;;;;;;;;4.00;99.90;;;;;;4859473;29;20501;-95
2022/03/08 07:25:08;;;;;;;13.77;6.13;;;4.30;99.90;;;;;;4878621;29;20441;-92
2022/03/08 07:27:35;;;;;;;9.63;6.22;;;4.80;99.90;;;;;;4850150;29;20509;-95
2022/03/08 07:30:02;;;;;;;9.57;6.75;;;5.10;99.90;;;;;;4865073;29;20398;-90
2022/03/08 07:32:28;;;;;;;12.30;6.57;;;5.30;99.90;;;;;;4862406;29;20048;-89
2022/03/08 07:34:54;;;;;;;8.40;5.97;;;5.60;99.90;;;;;;4865840;29;20493;-93
2022/03/08 07:37:20;;;;;;;7.97;4.93;;;5.90;99.90;;;;;;4849701;29;20096;-95
2022/03/08 07:39:48;;;;;;;6.77;5.23;;;6.20;99.90;;;;;;4870164;29;20067;-95
2022/03/08 07:42:17;;;;;;;7.22;5.78;;;6.50;99.90;;;;;;4882895;29;20053;-91
2022/03/08 07:44:45;;;;;;;7.57;5.53;;;7.10;99.90;;;;;;4880491;29;20060;-94
2022/03/08 07:47:11;;;;;;;9.13;6.30;;;6.70;99.90;;;;;;4877408;29;20265;-88
2022/03/08 07:49:37;;;;;;;9.70;4.50;;;7.80;99.90;;;;;;4867366;29;20555;-88
2022/03/08 07:52:03;;;;;;;8.43;4.77;;;7.10;99.90;;;;;;4858541;29;20045;-87
2022/03/08 07:54:29;;;;;;;10.05;5.50;;;7.30;99.90;;;;;;4860542;29;20049;-87
2022/03/08 07:56:55;;;;;;;7.47;4.40;;;7.40;99.90;;;;;;4884246;29;20044;-87
2022/03/08 07:59:20;;;;;;;7.10;4.67;;;7.50;99.90;;;;;;4886468;29;20132;-88
2022/03/08 08:01:49;;;;;;;7.33;4.80;;;7.90;99.90;;;;;;4854716;29;20056;-87
2022/03/08 08:04:14;;;;;;;5.22;4.68;;;8.00;99.90;;;;;;4854093;29;20049;-89
2022/03/08 08:06:40;;;;;;;5.10;4.43;;;8.20;99.90;;;;;;4877814;29;20048;-87
2022/03/08 08:09:06;;;;;;;6.07;4.40;;;8.40;99.90;;;;;;4859540;29;20139;-88
2022/03/08 08:11:32;;;;;;;7.07;4.43;;;8.60;99.90;;;;;;4865916;29;20051;-88
2022/03/08 08:13:58;;;;;;;8.73;4.93;;;8.70;99.90;;;;;;4851034;29;20044;-87
2022/03/08 08:16:26;;;;;;;7.07;4.43;;;8.80;99.90;;;;;;4837397;29;20325;-87
2022/03/08 08:18:52;;;;;;;6.00;4.20;;;8.90;99.20;;;;;;4860587;29;20040;-87
2022/03/08 08:21:17;;;;;;;5.27;4.50;;;9.00;98.00;;;;;;4865402;29;20047;-87
2022/03/08 08:23:43;;;;;;;6.37;5.03;;;9.10;96.30;;;;;;4848982;29;20057;-89
2022/03/08 08:26:11;;;;;;;6.50;4.83;;;9.30;94.90;;;;;;4865105;29;20592;-88
2022/03/08 08:28:37;;;;;;;7.75;4.75;;;9.30;93.80;;;;;;4878332;29;20057;-90
2022/03/08 08:31:03;;;;;;;7.60;4.77;;;9.40;93.10;;;;;;4873947;29;20045;-91
2022/03/08 08:33:29;;;;;;;9.27;4.80;;;9.50;91.80;;;;;;4852727;29;20045;-92
2022/03/08 08:35:56;;;;;;;8.97;4.70;;;9.60;90.80;;;;;;4887304;29;20041;-89
2022/03/08 08:38:24;;;;;;;6.38;4.10;;;9.70;90.40;;;;;;4867658;29;20087;-88
2022/03/08 08:40:50;;;;;;;5.70;4.60;;;10.00;88.50;;;;;;4850559;29;20076;-92
2022/03/08 08:43:19;;;;;;;7.60;5.10;;;10.10;86.60;;;;;;4874903;29;20107;-92
2022/03/08 08:45:51;;;;;;;7.78;4.93;;;10.10;84.40;;;;;;4871682;29;20044;-91
2022/03/08 08:48:18;;;;;;;7.78;4.80;;;10.20;82.40;;;;;;4878516;29;20053;-92
2022/03/08 08:50:44;;;;;;;6.43;4.10;;;9.30;80.50;;;;;;4876668;29;20052;-91
2022/03/08 08:53:09;;;;;;;5.17;4.40;;;10.20;79.30;;;;;;4863839;29;20048;-91
2022/03/08 08:55:37;;;;;;;6.67;4.23;;;10.30;78.70;;;;;;4877810;29;20136;-88
2022/03/08 08:58:06;;;;;;;5.45;4.45;;;10.20;77.60;;;;;;4868780;29;20064;-96
2022/03/08 09:00:34;;;;;;;6.97;4.28;;;9.40;75.10;;;;;;4887781;29;20049;-88
2022/03/08 09:03:02;;;;;;;8.85;4.10;;;10.10;74.70;;;;;;4875222;29;20137;-88
2022/03/08 09:05:30;;;;;;;5.80;4.57;;;10.00;75.10;;;;;;4867893;29;20489;-89
2022/03/08 09:08:23;;;;;;;4.45;3.67;;;8.90;74.90;;;;;;4875351;29;20048;-88
2022/03/08 09:10:51;;;;;;;8.70;4.55;;;9.70;74.30;;;;;;4863597;29;20045;-87
2022/03/08 09:13:17;;;;;;;5.50;4.30;;;9.50;74.40;;;;;;4870687;29;20045;-89
2022/03/08 09:15:42;;;;;;;5.70;4.50;;;9.30;74.20;;;;;;4867453;29;20049;-90
2022/03/08 09:18:09;;;;;;;5.33;4.20;;;9.60;74.10;;;;;;4864160;29;20052;-88
2022/03/08 09:20:35;;;;;;;5.68;4.35;;;9.50;73.20;;;;;;4849219;29;20048;-86
2022/03/08 09:23:03;;;;;;;6.72;4.00;;;9.50;72.50;;;;;;4883019;29;20069;-88
2022/03/08 09:25:28;;;;;;;7.95;4.90;;;9.50;72.30;;;;;;4861436;29;20378;-88
2022/03/08 09:27:54;;;;;;;5.10;3.97;;;9.40;71.80;;;;;;4857233;29;20052;-85
2022/03/08 09:30:22;;;;;;;9.17;4.50;;;9.40;71.40;;;;;;4868673;29;20105;-86
2022/03/08 09:32:48;;;;;;;3.90;3.42;;;9.50;70.90;;;;;;4857121;29;20497;-87
2022/03/08 09:35:16;;;;;;;7.87;4.83;;;9.40;70.50;;;;;;4868254;29;20097;-88
2022/03/08 09:37:42;;;;;;;9.60;4.13;;;9.10;70.90;;;;;;4896819;29;20494;-93
2022/03/08 09:40:11;;;;;;;8.60;4.57;;;9.20;71.60;;;;;;4872065;29;20055;-88
2022/03/08 09:42:37;;;;;;;9.43;4.07;;;9.00;72.50;;;;;;4855952;29;20124;-87
2022/03/08 09:45:03;;;;;;;6.35;4.53;;;8.90;73.60;;;;;;4869164;29;20045;-90
2022/03/08 09:47:31;;;;;;;6.50;4.15;;;9.00;74.20;;;;;;4868558;29;20047;-90
2022/03/08 09:49:57;;;;;;;6.20;3.92;;;9.10;74.40;;;;;;4842880;29;20104;-89
2022/03/08 09:52:26;;;;;;;5.80;4.53;;;9.20;74.00;;;;;;4870204;29;20045;-89
2022/03/08 09:54:53;;;;;;;3.97;3.55;;;9.20;73.40;;;;;;4846868;29;20398;-92
2022/03/08 09:57:22;;;;;;;5.28;3.72;;;9.40;74.00;;;;;;4865981;29;20121;-90
2022/03/08 09:59:48;;;;;;;4.50;3.85;;;9.60;74.00;;;;;;4855848;29;20056;-89
2022/03/08 10:02:32;;;;;;;5.83;3.83;;;9.60;73.50;;;;;;4847603;29;20057;-88
2022/03/08 10:05:06;;;;;;;4.25;3.03;;;9.70;73.20;;;;;;4847121;29;20049;-89
2022/03/08 10:07:32;;;;;;;4.15;3.40;;;9.90;71.00;;;;;;4861011;29;20056;-89
2022/03/08 10:09:59;;;;;;;3.63;3.30;;;10.00;71.50;;;;;;4831276;29;20057;-89
2022/03/08 10:12:28;;;;;;;4.85;3.40;;;9.80;69.40;;;;;;4859435;29;20049;-93
2022/03/08 10:14:54;;;;;;;4.28;3.45;;;9.80;69.60;;;;;;4844123;29;20200;-92
2022/03/08 10:17:40;;;;;;;3.72;3.13;;;10.80;68.70;;;;;;4843760;29;20064;-92
2022/03/08 10:20:26;;;;;;;5.82;3.58;;;9.80;68.40;;;;;;4843326;29;20053;-89
2022/03/08 10:22:52;;;;;;;4.70;3.33;;;9.70;68.00;;;;;;4845058;29;20052;-92
2022/03/08 10:25:25;;;;;;;3.97;3.03;;;9.80;68.30;;;;;;4861255;29;20045;-88
2022/03/08 10:27:57;;;;;;;2.97;2.17;;;9.80;67.70;;;;;;4862224;29;20401;-88
2022/03/08 10:30:25;;;;;;;3.50;2.90;;;9.80;66.40;;;;;;4848038;29;20053;-88
2022/03/08 10:32:56;;;;;;;3.72;3.35;;;9.70;66.50;;;;;;4865990;29;20056;-90
2022/03/08 10:35:24;;;;;;;4.55;3.33;;;9.70;65.50;;;;;;4865562;29;20188;-90
2022/03/08 10:37:50;;;;;;;4.65;2.80;;;9.70;65.50;;;;;;4850548;29;20040;-89
2022/03/08 10:40:23;;;;;;;4.10;2.53;;;9.80;65.50;;;;;;4865365;29;20101;-89
2022/03/08 10:43:08;;;;;;;3.03;2.58;;;9.80;64.80;;;;;;4864175;29;20543;-89
2022/03/08 10:45:39;;;;;;;4.43;2.70;;;9.70;64.00;;;;;;4844641;29;20078;-89
2022/03/08 10:48:08;;;;;;;4.35;2.40;;;9.80;65.10;;;;;;4865203;29;20097;-89
2022/03/08 10:50:37;;;;;;;5.60;3.33;;;9.80;64.40;;;;;;4865495;29;20112;-89
2022/03/08 10:53:05;;;;;;;3.97;3.10;;;9.80;63.20;;;;;;4865621;29;20377;-90
2022/03/08 10:55:32;;;;;;;3.53;2.80;;;9.90;64.00;;;;;;4849209;29;20053;-90
2022/03/08 10:58:12;;;;;;;4.05;2.70;;;9.90;63.00;;;;;;4850203;29;20053;-89
2022/03/08 11:01:10;;;;;;;5.65;2.70;;;10.70;63.40;;;;;;4848900;29;20131;-89
2022/03/08 11:03:36;;;;;;;4.10;2.83;;;10.00;62.60;;;;;;4874075;29;20053;-89
2022/03/08 11:06:05;;;;;;;3.90;2.73;;;10.10;63.10;;;;;;4849434;29;20059;-89
2022/03/08 11:08:32;;;;;;;3.63;2.70;;;10.20;63.70;;;;;;4849890;29;20072;-88
2022/03/08 11:10:58;;;;;;;5.00;2.88;;;10.40;63.20;;;;;;4882508;29;20093;-89
2022/03/08 11:13:23;;;;;;;3.13;2.70;;;10.40;62.70;;;;;;4871162;29;20437;-92
2022/03/08 11:15:50;;;;;;;2.73;2.43;;;10.40;62.90;;;;;;4892991;29;20049;-91
2022/03/08 11:18:16;;;;;;;7.07;2.90;;;10.40;62.70;;;;;;4877600;29;20501;-90
2022/03/08 11:20:46;;;;;;;4.50;2.60;;;10.50;62.70;;;;;;4878584;29;20104;-91
2022/03/08 11:23:12;;;;;;;4.68;2.90;;;10.50;63.20;;;;;;4881529;29;20131;-93
2022/03/08 11:25:44;;;;;;;3.60;2.17;;;10.50;62.70;;;;;;4866438;29;20143;-88
2022/03/08 11:28:10;;;;;;;4.88;3.03;;;10.90;62.20;;;;;;4866546;29;20041;-89
2022/03/08 11:30:56;;;;;;;5.60;3.33;;;11.80;63.30;;;;;;4877665;29;20107;-92
2022/03/08 11:33:52;;;;;;;2.65;2.42;;;11.00;61.50;;;;;;4880275;29;20491;-94
2022/03/08 11:36:32;;;;;;;4.18;2.90;;;11.30;62.60;;;;;;4865956;29;20370;-96
2022/03/08 11:39:19;;;;;;;3.60;2.53;;;11.30;61.10;;;;;;4872945;29;20120;-94
2022/03/08 11:42:13;;;;;;;6.30;2.80;;;11.40;61.00;;;;;;4851857;29;20065;-93
2022/03/08 11:44:39;;;;;;;4.85;2.53;;;11.40;60.60;;;;;;4880888;29;20064;-94
2022/03/08 11:47:14;;;;;;;3.03;2.43;;;11.50;61.10;;;;;;4874085;29;20041;-94
2022/03/08 11:49:56;;;;;;;5.15;2.25;;;11.60;59.30;;;;;;4849514;29;20500;-90
2022/03/08 11:52:35;;;;;;;4.60;3.03;;;11.50;59.20;;;;;;4852437;29;20404;-94
2022/03/08 11:55:08;;;;;;;3.70;2.45;;;11.50;58.80;;;;;;4867654;29;20041;-92
2022/03/08 11:57:55;;;;;;;2.60;2.35;;;11.40;59.10;;;;;;4864967;29;20126;-89
2022/03/08 12:00:24;;;;;;;5.75;2.60;;;11.50;59.80;;;;;;4862185;29;20075;-89
2022/03/08 12:02:53;;;;;;;6.68;3.22;;;11.20;59.80;;;;;;4875536;29;20057;-91
2022/03/08 12:05:39;;;;;;;3.30;2.58;;;11.70;59.10;;;;;;4857176;29;20052;-89
2022/03/08 12:08:29;;;;;;;4.00;2.85;;;11.80;59.30;;;;;;4867628;29;20128;-89
2022/03/08 12:11:04;;;;;;;3.03;2.50;;;11.80;57.70;;;;;;4847123;29;20073;-89
2022/03/08 12:13:44;;;;;;;4.75;2.80;;;11.90;57.00;;;;;;4872244;29;20492;-89
2022/03/08 12:16:09;;;;;;;5.85;2.60;;;12.00;57.40;;;;;;4867125;29;20522;-89
2022/03/08 12:18:39;;;;;;;3.97;2.20;;;12.20;58.40;;;;;;4882320;29;20048;-89
2022/03/08 12:21:14;;;;;;;2.92;2.10;;;12.20;57.30;;;;;;4882674;29;20515;-89
2022/03/08 12:24:09;;;;;;;4.32;2.85;;;12.20;56.50;;;;;;4882341;29;20048;-89
2022/03/08 12:26:43;;;;;;;4.38;2.55;;;12.20;56.10;;;;;;4850469;29;20056;-89
2022/03/08 12:29:23;;;;;;;2.80;2.03;;;12.50;57.80;;;;;;4857849;29;20057;-89
2022/03/08 12:31:58;;;;;;;2.90;2.40;;;12.60;57.00;;;;;;4873315;29;20078;-89
2022/03/08 12:34:36;;;;;;;3.97;2.50;;;12.60;56.50;;;;;;4863789;29;20084;-89
2022/03/08 12:37:20;;;;;;;3.45;2.75;;;12.50;54.90;;;;;;4850340;29;20132;-88
2022/03/08 12:39:54;;;;;;;3.42;2.42;;;12.40;56.40;;;;;;4883827;29;20067;-90
2022/03/08 12:42:20;;;;;;;4.43;2.47;;;12.40;55.70;;;;;;4862896;29;20053;-89
2022/03/08 12:45:13;;;;;;;3.60;2.50;;;12.40;57.00;;;;;;4861228;29;20049;-89
2022/03/08 12:47:49;;;;;;;4.85;2.35;;;12.50;56.30;;;;;;4860657;29;20140;-93
2022/03/08 12:50:24;;;;;;;3.47;2.63;;;12.60;57.00;;;;;;4877652;29;20079;-87
2022/03/08 12:52:53;;;;;;;2.60;2.38;;;12.60;56.60;;;;;;4885040;29;20060;-87
2022/03/08 12:55:21;;;;;;;2.75;2.05;;;12.60;56.90;;;;;;4867714;29;20404;-86
2022/03/08 12:57:53;;;;;;;3.83;2.20;;;12.60;57.00;;;;;;4887309;29;20448;-88
2022/03/08 13:00:28;;;;;;;3.33;2.15;;;12.50;56.00;;;;;;4866006;29;20092;-86